createdAt,value
2019-04-21T00:00:37.415Z,14.40
2019-04-21T00:01:41.469Z,14.70
2019-04-21T00:02:39.149Z,14.90
2019-04-21T00:03:45.619Z,15.20
2019-04-21T00:04:48.220Z,15.00
2019-04-21T00:05:59.678Z,14.20
2019-04-21T00:06:58.806Z,15.60
2019-04-21T00:08:10.870Z,14.80
2019-04-21T00:08:57.942Z,14.60
2019-04-21T00:10:02.613Z,14.80
2019-04-21T00:10:57.854Z,15.40
2019-04-21T00:11:57.169Z,14.20
2019-04-21T00:12:52.300Z,14.60
2019-04-21T00:13:46.776Z,14.90
2019-04-21T00:14:46.260Z,15.00
2019-04-21T00:15:40.717Z,15.40
2019-04-21T00:16:44.138Z,15.10
2019-04-21T00:17:36.891Z,14.80
2019-04-21T00:18:42.980Z,14.60
2019-04-21T00:19:38.953Z,15.20
2019-04-21T00:20:42.461Z,14.70
2019-04-21T00:21:43.510Z,14.40
2019-04-21T00:22:47.724Z,14.80
2019-04-21T00:23:54.071Z,14.40
2019-04-21T00:24:53.453Z,14.50
2019-04-21T00:25:50.281Z,14.50
2019-04-21T00:26:55.679Z,14.90
2019-04-21T00:27:50.111Z,14.60
2019-04-21T00:29:05.129Z,13.70
2019-04-21T00:29:58.023Z,14.80
2019-04-21T00:30:56.872Z,14.90
2019-04-21T00:31:51.390Z,14.40
2019-04-21T00:32:50.278Z,14.30
2019-04-21T00:33:40.983Z,15.00
2019-04-21T00:34:36.347Z,14.20
2019-04-21T00:35:43.159Z,14.40
2019-04-21T00:36:47.118Z,14.60
2019-04-21T00:37:53.379Z,15.50
2019-04-21T00:39:09.598Z,15.10
2019-04-21T00:40:06.148Z,14.70
2019-04-21T00:41:00.516Z,15.20
2019-04-21T00:41:57.306Z,15.30
2019-04-21T00:42:56.971Z,14.40
2019-04-21T00:43:49.451Z,14.60
2019-04-21T00:44:54.117Z,15.00
2019-04-21T00:45:48.104Z,14.50
2019-04-21T00:46:51.650Z,14.80
2019-04-21T00:47:58.764Z,15.10
2019-04-21T00:49:00.361Z,14.70
2019-04-21T00:50:02.249Z,14.40
2019-04-21T00:51:14.770Z,14.70
2019-04-21T00:52:03.935Z,15.20
2019-04-21T00:53:19.600Z,15.20
2019-04-21T00:54:06.859Z,14.80
2019-04-21T00:55:08.821Z,14.60
2019-04-21T00:56:07.246Z,14.70
2019-04-21T00:57:04.351Z,13.80
2019-04-21T00:59:01.932Z,14.80
2019-04-21T01:00:01.225Z,14.60
2019-04-21T01:00:57.984Z,14.00
2019-04-21T01:01:55.524Z,15.30
2019-04-21T01:03:17.139Z,15.20
2019-04-21T01:03:58.119Z,14.10
2019-04-21T01:05:00.041Z,14.60
2019-04-21T01:06:00.009Z,15.10
2019-04-21T01:07:05.582Z,14.60
2019-04-21T01:07:50.343Z,14.20
2019-04-21T01:08:55.273Z,15.30
2019-04-21T01:09:48.888Z,15.10
2019-04-21T01:10:51.469Z,14.90
2019-04-21T01:12:01.470Z,15.00
2019-04-21T01:12:54.756Z,15.10
2019-04-21T01:14:00.233Z,14.30
2019-04-21T01:15:07.830Z,14.10
2019-04-21T01:15:59.564Z,13.80
2019-04-21T01:17:00.749Z,13.90
2019-04-21T01:17:59.364Z,14.10
2019-04-21T01:18:55.019Z,14.60
2019-04-21T01:19:51.366Z,15.10
2019-04-21T01:20:35.503Z,14.40
2019-04-21T01:21:34.507Z,14.30
2019-04-21T01:22:34.482Z,13.30
2019-04-21T01:23:35.761Z,14.70
2019-04-21T01:24:39.573Z,14.40
2019-04-21T01:25:41.560Z,13.60
2019-04-21T01:26:48.256Z,13.70
2019-04-21T01:28:04.975Z,14.20
2019-04-21T01:28:51.143Z,13.80
2019-04-21T01:29:54.002Z,14.00
2019-04-21T01:30:56.991Z,15.00
2019-04-21T01:31:57.299Z,15.00
2019-04-21T01:32:53.232Z,14.30
2019-04-21T01:33:59.247Z,14.20
2019-04-21T01:34:58.203Z,14.90
2019-04-21T01:35:55.487Z,15.40
2019-04-21T01:36:54.707Z,14.60
2019-04-21T01:37:57.599Z,15.40
2019-04-21T01:39:02.134Z,15.00
2019-04-21T01:40:02.641Z,15.20
2019-04-21T01:40:59.128Z,14.00
2019-04-21T01:41:57.334Z,15.70
2019-04-21T01:42:56.302Z,15.00
2019-04-21T01:44:00.763Z,14.80
2019-04-21T01:44:52.260Z,14.70
2019-04-21T01:45:56.714Z,14.90
2019-04-21T01:46:51.985Z,15.00
2019-04-21T01:47:50.956Z,14.10
2019-04-21T01:48:49.373Z,14.10
2019-04-21T01:49:47.483Z,15.00
2019-04-21T01:50:51.255Z,14.80
2019-04-21T01:52:02.834Z,13.90
2019-04-21T01:52:55.967Z,15.30
2019-04-21T01:53:56.523Z,15.50
2019-04-21T01:55:54.775Z,14.70
2019-04-21T01:56:57.014Z,15.50
2019-04-21T01:57:56.028Z,14.50
2019-04-21T01:58:46.163Z,14.00
2019-04-21T01:59:48.829Z,14.30
2019-04-21T02:00:53.779Z,13.80
2019-04-21T02:01:54.154Z,14.40
2019-04-21T02:03:02.293Z,13.70
2019-04-21T02:03:57.017Z,14.00
2019-04-21T02:05:03.437Z,14.90
2019-04-21T02:05:59.975Z,13.90
2019-04-21T02:06:57.439Z,14.00
2019-04-21T02:07:58.059Z,14.50
2019-04-21T02:08:56.272Z,14.40
2019-04-21T02:10:00.488Z,14.30
2019-04-21T02:11:00.590Z,14.10
2019-04-21T02:12:05.832Z,14.90
2019-04-21T02:12:58.279Z,14.60
2019-04-21T02:14:05.411Z,14.40
2019-04-21T02:15:04.546Z,14.10
2019-04-21T02:16:08.394Z,15.50
2019-04-21T02:17:56.340Z,13.90
2019-04-21T02:18:54.683Z,14.50
2019-04-21T02:19:49.142Z,15.20
2019-04-21T02:20:47.617Z,14.70
2019-04-21T02:21:47.811Z,15.00
2019-04-21T02:23:12.889Z,14.90
2019-04-21T02:24:01.914Z,15.80
2019-04-21T02:25:00.960Z,15.60
2019-04-21T02:26:01.889Z,17.70
2019-04-21T02:27:00.495Z,20.10
2019-04-21T02:28:00.812Z,18.90
2019-04-21T02:29:03.273Z,17.20
2019-04-21T02:30:02.714Z,17.60
2019-04-21T02:31:17.645Z,18.40
2019-04-21T02:33:28.015Z,17.70
2019-04-21T02:34:17.270Z,17.90
2019-04-21T02:35:18.720Z,19.30
2019-04-21T02:36:26.624Z,19.50
2019-04-21T02:37:28.658Z,18.00
2019-04-21T02:40:21.518Z,16.90
2019-04-21T02:40:57.872Z,16.40
2019-04-21T02:42:05.311Z,18.40
2019-04-21T02:45:09.466Z,18.60
2019-04-21T02:46:12.523Z,19.00
2019-04-21T02:46:54.466Z,18.20
2019-04-21T02:49:11.255Z,18.70
2019-04-21T02:51:03.971Z,18.60
2019-04-21T02:52:13.382Z,18.20
2019-04-21T02:53:16.100Z,19.00
2019-04-21T02:55:17.999Z,17.90
2019-04-21T02:56:14.507Z,19.30
2019-04-21T02:57:09.577Z,19.20
2019-04-21T02:58:06.313Z,18.80
2019-04-21T02:59:11.836Z,18.10
2019-04-21T03:00:06.972Z,19.20
2019-04-21T03:01:05.164Z,18.50
2019-04-21T03:02:04.537Z,17.60
2019-04-21T03:03:03.918Z,17.40
2019-04-21T03:04:11.300Z,17.60
2019-04-21T03:05:13.421Z,16.60
2019-04-21T03:07:14.963Z,16.30
2019-04-21T03:08:05.166Z,16.90
2019-04-21T03:09:09.215Z,16.40
2019-04-21T03:10:12.414Z,17.30
2019-04-21T03:11:14.621Z,18.00
2019-04-21T03:12:14.920Z,19.00
2019-04-21T03:13:05.670Z,18.60
2019-04-21T03:14:30.293Z,17.80
2019-04-21T03:15:12.133Z,18.70
2019-04-21T03:17:09.043Z,16.90
2019-04-21T03:18:08.205Z,17.00
2019-04-21T03:19:06.764Z,18.40
2019-04-21T03:20:19.038Z,17.40
2019-04-21T03:21:09.331Z,17.80
2019-04-21T03:22:08.069Z,18.10
2019-04-21T03:23:07.781Z,19.10
2019-04-21T03:26:12.398Z,18.60
2019-04-21T03:27:25.971Z,19.00
2019-04-21T03:28:11.945Z,17.20
2019-04-21T03:29:03.601Z,17.80
2019-04-21T03:30:14.204Z,18.40
2019-04-21T03:31:36.144Z,18.00
2019-04-21T03:32:40.169Z,16.60
2019-04-21T03:33:53.257Z,18.30
2019-04-21T03:36:33.543Z,16.70
2019-04-21T03:38:09.813Z,18.20
2019-04-21T03:39:18.367Z,18.40
2019-04-21T03:41:04.173Z,19.70
2019-04-21T03:42:19.976Z,18.40
2019-04-21T03:43:04.462Z,19.00
2019-04-21T03:44:10.000Z,18.30
2019-04-21T03:45:03.640Z,18.60
2019-04-21T03:45:58.197Z,18.60
2019-04-21T03:47:08.371Z,18.30
2019-04-21T03:48:13.847Z,17.60
2019-04-21T03:49:11.953Z,18.00
2019-04-21T03:50:22.397Z,17.90
2019-04-21T03:51:07.143Z,18.00
2019-04-21T03:53:02.960Z,17.80
2019-04-21T03:54:00.697Z,17.70
2019-04-21T03:55:28.150Z,18.60
2019-04-21T04:00:09.374Z,17.60
2019-04-21T04:03:27.436Z,17.70
2019-04-21T04:04:14.977Z,17.40
2019-04-21T04:05:10.936Z,17.20
2019-04-21T04:07:11.117Z,18.20
2019-04-21T04:08:09.175Z,18.20
2019-04-21T04:09:11.157Z,18.90
2019-04-21T04:11:15.170Z,17.60
2019-04-21T04:13:09.590Z,17.90
2019-04-21T04:14:26.761Z,18.00
2019-04-21T04:15:03.024Z,17.80
2019-04-21T04:16:06.943Z,17.30
2019-04-21T04:18:07.663Z,17.90
2019-04-21T04:19:11.564Z,16.50
2019-04-21T04:20:03.959Z,16.30
2019-04-21T04:22:20.742Z,18.00
2019-04-21T04:24:15.090Z,18.00
2019-04-21T04:25:04.955Z,18.10
2019-04-21T04:26:06.781Z,17.70
2019-04-21T04:27:12.723Z,17.70
2019-04-21T04:28:14.247Z,18.80
2019-04-21T04:29:12.153Z,18.00
2019-04-21T04:30:07.655Z,18.20
2019-04-21T04:31:06.767Z,18.60
2019-04-21T04:32:00.930Z,18.80
2019-04-21T04:33:12.343Z,18.10
2019-04-21T04:35:25.920Z,18.10
2019-04-21T04:36:15.648Z,17.80
2019-04-21T04:37:12.445Z,18.00
2019-04-21T04:38:07.013Z,19.10
2019-04-21T04:39:16.353Z,18.60
2019-04-21T04:41:12.043Z,18.40
2019-04-21T04:42:16.123Z,18.70
2019-04-21T04:44:35.017Z,17.30
2019-04-21T04:45:15.785Z,18.30
2019-04-21T04:45:59.034Z,17.30
2019-04-21T04:47:10.393Z,18.70
2019-04-21T04:48:07.505Z,18.70
2019-04-21T04:49:32.115Z,18.50
2019-04-21T04:50:06.770Z,17.70
2019-04-21T04:51:01.986Z,19.10
2019-04-21T04:52:31.741Z,19.00
2019-04-21T04:53:07.700Z,18.50
2019-04-21T04:53:50.787Z,19.30
2019-04-21T04:55:03.855Z,18.80
2019-04-21T04:56:10.835Z,17.70
2019-04-21T04:57:21.780Z,17.70
2019-04-21T04:58:16.070Z,17.90
2019-04-21T04:59:23.106Z,17.70
2019-04-21T05:00:15.700Z,18.40
2019-04-21T05:01:13.779Z,18.30
2019-04-21T05:02:14.317Z,17.70
2019-04-21T05:03:01.250Z,17.40
2019-04-21T05:05:13.888Z,18.20
2019-04-21T05:06:10.051Z,17.40
2019-04-21T05:08:23.969Z,18.20
2019-04-21T05:09:58.911Z,18.20
2019-04-21T05:11:16.111Z,17.10
2019-04-21T05:12:07.728Z,18.70
2019-04-21T05:13:04.306Z,17.90
2019-04-21T05:14:06.221Z,17.80
2019-04-21T05:15:07.775Z,18.60
2019-04-21T05:16:02.524Z,17.90
2019-04-21T05:18:13.395Z,18.50
2019-04-21T05:21:12.967Z,18.80
2019-04-21T05:22:04.954Z,17.60
2019-04-21T05:22:54.503Z,17.50
2019-04-21T05:23:51.161Z,17.80
2019-04-21T05:24:49.254Z,17.50
2019-04-21T05:25:45.655Z,17.50
2019-04-21T05:26:49.307Z,17.90
2019-04-21T05:27:52.553Z,18.20
2019-04-21T05:28:49.809Z,17.40
2019-04-21T05:29:58.742Z,18.30
2019-04-21T05:30:58.454Z,18.30
2019-04-21T05:31:56.152Z,17.80
2019-04-21T05:33:02.730Z,19.30
2019-04-21T05:33:54.270Z,18.70
2019-04-21T05:34:55.782Z,19.00
2019-04-21T05:35:49.495Z,18.90
2019-04-21T05:36:52.062Z,19.20
2019-04-21T05:37:58.652Z,18.40
2019-04-21T05:38:50.287Z,18.60
2019-04-21T05:39:51.251Z,18.00
2019-04-21T05:40:43.702Z,18.80
2019-04-21T05:41:43.001Z,18.10
2019-04-21T05:42:49.550Z,17.80
2019-04-21T05:44:01.919Z,18.80
2019-04-21T05:45:01.615Z,18.30
2019-04-21T05:45:58.353Z,18.80
2019-04-21T05:47:07.897Z,18.30
2019-04-21T05:48:09.540Z,18.50
2019-04-21T05:48:52.145Z,18.10
2019-04-21T05:50:53.757Z,18.50
2019-04-21T05:51:49.876Z,17.60
2019-04-21T05:52:51.993Z,16.70
2019-04-21T05:53:56.982Z,17.80
2019-04-21T05:54:57.277Z,16.80
2019-04-21T05:55:56.859Z,16.10
2019-04-21T05:56:55.433Z,17.20
2019-04-21T05:57:54.312Z,17.30
2019-04-21T05:58:48.069Z,16.50
2019-04-21T05:59:53.264Z,18.40
2019-04-21T06:01:15.364Z,18.10
2019-04-21T06:02:02.223Z,22.20
2019-04-21T06:02:57.724Z,22.30
2019-04-21T06:03:57.317Z,24.10
2019-04-21T06:06:00.368Z,24.10
2019-04-21T06:06:56.782Z,22.60
2019-04-21T06:07:54.802Z,23.40
2019-04-21T06:08:55.974Z,23.10
2019-04-21T06:09:58.224Z,23.20
2019-04-21T06:10:52.376Z,23.70
2019-04-21T06:11:59.833Z,22.90
2019-04-21T06:12:59.270Z,21.80
2019-04-21T06:14:54.388Z,22.60
2019-04-21T06:15:57.963Z,21.80
2019-04-21T06:16:55.641Z,22.80
2019-04-21T06:17:57.934Z,21.80
2019-04-21T06:19:55.696Z,23.30
2019-04-21T06:20:59.865Z,21.90
2019-04-21T06:21:51.081Z,22.00
2019-04-21T06:22:56.625Z,22.30
2019-04-21T06:23:49.725Z,21.50
2019-04-21T06:25:24.336Z,22.20
2019-04-21T06:27:57.199Z,21.80
2019-04-21T06:28:59.571Z,21.50
2019-04-21T06:29:55.906Z,21.50
2019-04-21T06:31:08.088Z,22.60
2019-04-21T06:32:20.335Z,21.00
2019-04-21T06:33:04.979Z,21.70
2019-04-21T06:34:08.071Z,21.60
2019-04-21T06:37:05.837Z,21.00
2019-04-21T06:37:50.561Z,20.80
2019-04-21T06:40:07.686Z,21.50
2019-04-21T06:40:56.158Z,21.00
2019-04-21T06:41:55.737Z,21.70
2019-04-21T06:43:08.000Z,21.90
2019-04-21T06:45:56.880Z,20.30
2019-04-21T06:46:53.204Z,21.30
2019-04-21T06:48:01.103Z,20.60
2019-04-21T06:49:14.308Z,22.20
2019-04-21T06:49:53.743Z,22.30
2019-04-21T06:51:04.911Z,21.70
2019-04-21T06:52:00.230Z,22.40
2019-04-21T06:52:54.955Z,21.80
2019-04-21T06:53:59.326Z,21.30
2019-04-21T06:54:57.190Z,21.40
2019-04-21T06:55:51.859Z,21.20
2019-04-21T06:56:51.272Z,21.10
2019-04-21T06:57:51.928Z,21.50
2019-04-21T06:58:50.249Z,21.80
2019-04-21T07:00:56.177Z,20.60
2019-04-21T07:02:02.841Z,20.50
2019-04-21T07:03:02.697Z,19.80
2019-04-21T07:04:59.008Z,20.50
2019-04-21T07:05:58.947Z,20.60
2019-04-21T07:06:56.333Z,22.20
2019-04-21T07:08:13.083Z,21.00
2019-04-21T07:09:02.513Z,21.60
2019-04-21T07:09:57.161Z,21.00
2019-04-21T07:11:53.821Z,20.70
2019-04-21T07:12:51.348Z,21.30
2019-04-21T07:14:03.125Z,21.50
2019-04-21T07:14:53.245Z,21.70
2019-04-21T07:16:00.472Z,21.50
2019-04-21T07:16:57.866Z,22.20
2019-04-21T07:17:54.036Z,21.10
2019-04-21T07:19:03.964Z,21.50
2019-04-21T07:19:55.795Z,20.60
2019-04-21T07:20:53.124Z,20.70
2019-04-21T07:21:54.343Z,21.30
2019-04-21T07:22:54.201Z,20.70
2019-04-21T07:24:01.998Z,21.90
2019-04-21T07:24:58.984Z,21.40
2019-04-21T07:25:52.556Z,20.60
2019-04-21T07:26:59.623Z,21.40
2019-04-21T07:27:52.055Z,19.90
2019-04-21T07:29:01.901Z,21.90
2019-04-21T07:30:59.087Z,21.20
2019-04-21T07:31:58.969Z,21.40
2019-04-21T07:32:59.442Z,20.90
2019-04-21T07:35:00.587Z,21.80
2019-04-21T07:36:07.679Z,20.80
2019-04-21T07:36:54.879Z,22.20
2019-04-21T07:37:53.605Z,21.80
2019-04-21T07:38:50.392Z,22.30
2019-04-21T07:39:49.374Z,20.80
2019-04-21T07:40:45.868Z,22.50
2019-04-21T07:41:49.695Z,22.90
2019-04-21T07:42:47.797Z,20.40
2019-04-21T07:43:44.018Z,21.10
2019-04-21T07:44:46.043Z,21.40
2019-04-21T07:45:45.857Z,20.50
2019-04-21T07:46:45.323Z,19.90
2019-04-21T07:47:51.776Z,22.20
2019-04-21T07:48:49.770Z,21.60
2019-04-21T07:49:59.006Z,20.20
2019-04-21T07:50:52.078Z,20.80
2019-04-21T07:52:01.405Z,20.30
2019-04-21T07:53:55.355Z,19.90
2019-04-21T07:54:57.415Z,19.40
2019-04-21T07:55:32.635Z,20.50
2019-04-21T07:56:36.259Z,20.60
2019-04-21T07:57:46.833Z,20.20
2019-04-21T07:59:00.165Z,19.90
2019-04-21T08:00:56.319Z,21.30
2019-04-21T08:01:58.908Z,19.80
2019-04-21T08:02:53.959Z,22.10
2019-04-21T08:03:56.960Z,21.00
2019-04-21T08:05:52.554Z,21.50
2019-04-21T08:06:52.024Z,20.70
2019-04-21T08:08:08.135Z,21.40
2019-04-21T08:08:52.924Z,20.60
2019-04-21T08:09:51.339Z,20.70
2019-04-21T08:10:50.925Z,19.80
2019-04-21T08:11:48.712Z,20.10
2019-04-21T08:12:49.407Z,20.00
2019-04-21T08:13:53.555Z,20.20
2019-04-21T08:14:55.711Z,20.90
2019-04-21T08:15:51.000Z,19.80
2019-04-21T08:16:57.310Z,20.40
2019-04-21T08:18:04.726Z,18.70
2019-04-21T08:18:52.185Z,19.60
2019-04-21T08:19:49.801Z,19.70
2019-04-21T08:20:47.978Z,17.60
2019-04-21T08:22:00.078Z,20.30
2019-04-21T08:22:51.620Z,20.80
2019-04-21T08:23:48.376Z,20.20
2019-04-21T08:24:52.126Z,21.50
2019-04-21T08:26:03.688Z,20.90
2019-04-21T08:26:51.455Z,21.70
2019-04-21T08:28:53.734Z,22.90
2019-04-21T08:29:51.883Z,20.20
2019-04-21T08:30:47.341Z,20.50
2019-04-21T08:31:56.485Z,21.60
2019-04-21T08:33:56.079Z,21.10
2019-04-21T08:36:52.761Z,21.20
2019-04-21T08:37:51.775Z,21.20
2019-04-21T08:38:54.034Z,21.30
2019-04-21T08:40:05.109Z,20.60
2019-04-21T08:40:49.162Z,20.00
2019-04-21T08:41:51.221Z,20.10
2019-04-21T08:42:52.190Z,20.50
2019-04-21T08:43:51.369Z,19.50
